M/T Havva Ana — V7RE3 — position and weather

sailwx.info

Track history (hours):
 
Tides and Currents Weather Stations Pressure Air Temp Water Temp Dewpoint Dewpoint Depression Visibility Wind Speed Wind Dir Waves Ship Positions

M/T Havva Ana

Last reported at 2016-Aug-06 04:33 UTC. Time now 2016-Sep-25 10:40 UTC.
Position N 27°59' W 015°15'.
Warning: this ship's position is 50 days out of date.

Length 124 m; draft 6.2 m.

Type: Tanker. MMSI: 538003488.

Date/timePositionNaut miles runAvg speedWind from/ knotsBaromVisibWave heightAir tempDewpointWater temp
2016-Aug-06 04:33N 27°59' W 015°15'1211.8
2016-Aug-06 03:33N 28°07' W 015°24'2 1.6
2016-Aug-06 02:31N 28°09' W 015°25'0 0.0
2016-Aug-06 01:31N 28°09' W 015°25'0 0.0
2016-Aug-05 22:31N 28°09' W 015°25'0 0.0
2016-Aug-05 20:31N 28°09' W 015°25'0 0.0
2016-Aug-05 19:31N 28°09' W 015°25'0 0.0
2016-Aug-05 18:31N 28°09' W 015°25'0 0.0
2016-Aug-05 17:28N 28°09' W 015°25'0 0.0
2016-Aug-05 16:33N 28°09' W 015°25'2 2.2
2016-Aug-05 15:33N 28°07' W 015°23'7 6.9
2016-Aug-05 14:33N 28°12' W 015°18'1212.1
2016-Aug-05 13:33N 28°21' W 015°09'1212.3
2016-Aug-05 12:33N 28°31' W 014°60'1212.1
2016-Aug-05 11:33N 28°40' W 014°51'1211.9
2016-Aug-05 10:33N 28°49' W 014°42'1211.9
2016-Aug-05 09:32N 28°58' W 014°33'1212.2
2016-Aug-05 08:33N 29°07' W 014°23'1212.2
2016-Aug-05 07:33N 29°16' W 014°15'1312.4
2016-Aug-05 06:28N 29°27' W 014°05'2412.4
2016-Aug-05 04:31N 29°44' W 013°46'1212.3
2016-Aug-05 03:31N 29°53' W 013°36'1212.5
2016-Aug-05 02:33N 30°01' W 013°26'1312.5
2016-Aug-05 01:33N 30°10' W 013°15'1212.3
2016-Aug-05 00:33N 30°18' W 013°05'1312.9
2016-Aug-04 23:31N 30°27' W 012°53'1313.1
2016-Aug-04 22:31N 30°36' W 012°42'1212.9
2016-Aug-04 21:33N 30°45' W 012°32'1212.5
2016-Aug-04 20:33N 30°54' W 012°21'1312.4
2016-Aug-04 19:33N 31°02' W 012°10'1412.7
2016-Aug-04 18:28N 31°11' W 011°59'1212.4
2016-Aug-04 17:31N 31°20' W 011°49'3812.3
2016-Aug-04 14:26N 31°46' W 011°17'1112.2
2016-Aug-04 13:31N 31°53' W 011°07'1212.2
2016-Aug-04 12:33N 32°01' W 010°57'1412.3
2016-Aug-04 11:25N 32°11' W 010°45'2211.9
2016-Aug-04 09:32N 32°26' W 010°26'6412.0
2016-Aug-04 04:10N 33°10' W 009°30'811.9
2016-Aug-04 03:31N 33°16' W 009°24'1212.1
2016-Aug-04 02:30N 33°24' W 009°13'1212.5
2016-Aug-04 01:33N 33°32' W 009°03'1312.5
2016-Aug-04 00:33N 33°41' W 008°52'21411.9
2016-Aug-03 06:33N 35°59' W 005°33'  
2016-Jul-31 18:33N 37°41' E 009°10'1111.4
2016-Jul-31 17:33N 37°41' E 009°24'1511.9
2016-Jul-31 16:19N 37°40' E 009°43'2112.0
2016-Jul-31 14:33N 37°39' E 010°09'1312.2
2016-Jul-31 13:31N 37°37' E 010°25'1212.0
2016-Jul-31 12:33N 37°34' E 010°39'1212.3
2016-Jul-31 11:33N 37°31' E 010°54'1312.6
2016-Jul-31 10:32N 37°28' E 011°10'1212.0
2016-Jul-31 09:31N 37°22' E 011°23'1211.8
2016-Jul-31 08:33N 37°17' E 011°36'2411.9
2016-Jul-31 06:33N 37°08' E 012°03'1212.1
2016-Jul-31 05:33N 37°02' E 012°17'1211.9
2016-Jul-31 04:33N 36°58' E 012°31'1212.3
2016-Jul-31 03:32N 36°53' E 012°45'1211.9
2016-Jul-31 02:33N 36°48' E 012°58'1211.6
2016-Jul-31 01:33N 36°43' E 013°11'1211.6
2016-Jul-31 00:33N 36°38' E 013°25'2411.8
2016-Jul-30 22:33N 36°28' E 013°51'1111.5
2016-Jul-30 21:33N 36°23' E 014°04'1211.8
2016-Jul-30 20:33N 36°18' E 014°18'1211.8
2016-Jul-30 19:33N 36°12' E 014°30'1211.7
2016-Jul-30 18:33N 36°06' E 014°42'1211.7
2016-Jul-30 17:33N 35°59' E 014°54'1010.0
2016-Jul-30 16:33N 35°50' E 014°52'0 0.2
2016-Jul-30 15:33N 35°50' E 014°51'0 0.0
2016-Jul-30 14:33N 35°50' E 014°51'0 0.0
2016-Jul-30 13:33N 35°50' E 014°51'0 0.0
2016-Jul-30 12:33N 35°50' E 014°51'0 0.3
2016-Jul-30 11:33N 35°49' E 014°52'10 9.9
2016-Jul-30 10:33N 35°40' E 014°48'1211.5
2016-Jul-30 09:33N 35°33' E 014°37'1211.9
2016-Jul-30 08:33N 35°26' E 014°25'1211.9
2016-Jul-30 07:33N 35°18' E 014°14'1211.9
2016-Jul-30 06:33N 35°11' E 014°03'1212.1
2016-Jul-30 05:33N 35°03' E 013°52'1212.2
2016-Jul-30 04:33N 34°56' E 013°40'1212.2
2016-Jul-30 03:33N 34°48' E 013°28'  
Track history (hours):
 
Tides and Currents Weather Stations Pressure Air Temp Water Temp Dewpoint Dewpoint Depression Visibility Wind Speed Wind Dir Waves Ship Positions

M/T Havva Ana

Last reported at 2016-Aug-06 04:33 UTC. Time now 2016-Sep-25 10:40 UTC.
Position N 27°59' W 015°15'.
Warning: this ship's position is 50 days out of date.

Length 124 m; draft 6.2 m.

Type: Tanker. MMSI: 538003488.

Date/timePositionNaut miles runAvg speedWind from/ knotsBaromVisibWave heightAir tempDewpointWater temp
2016-Aug-06 04:33N 27°59' W 015°15'1211.8
2016-Aug-06 03:33N 28°07' W 015°24'2 1.6
2016-Aug-06 02:31N 28°09' W 015°25'0 0.0
2016-Aug-06 01:31N 28°09' W 015°25'0 0.0
2016-Aug-05 22:31N 28°09' W 015°25'0 0.0
2016-Aug-05 20:31N 28°09' W 015°25'0 0.0
2016-Aug-05 19:31N 28°09' W 015°25'0 0.0
2016-Aug-05 18:31N 28°09' W 015°25'0 0.0
2016-Aug-05 17:28N 28°09' W 015°25'0 0.0
2016-Aug-05 16:33N 28°09' W 015°25'2 2.2
2016-Aug-05 15:33N 28°07' W 015°23'7 6.9
2016-Aug-05 14:33N 28°12' W 015°18'1212.1
2016-Aug-05 13:33N 28°21' W 015°09'1212.3
2016-Aug-05 12:33N 28°31' W 014°60'1212.1
2016-Aug-05 11:33N 28°40' W 014°51'1211.9
2016-Aug-05 10:33N 28°49' W 014°42'1211.9
2016-Aug-05 09:32N 28°58' W 014°33'1212.2
2016-Aug-05 08:33N 29°07' W 014°23'1212.2
2016-Aug-05 07:33N 29°16' W 014°15'1312.4
2016-Aug-05 06:28N 29°27' W 014°05'2412.4
2016-Aug-05 04:31N 29°44' W 013°46'1212.3
2016-Aug-05 03:31N 29°53' W 013°36'1212.5
2016-Aug-05 02:33N 30°01' W 013°26'1312.5
2016-Aug-05 01:33N 30°10' W 013°15'1212.3
2016-Aug-05 00:33N 30°18' W 013°05'1312.9
2016-Aug-04 23:31N 30°27' W 012°53'1313.1
2016-Aug-04 22:31N 30°36' W 012°42'1212.9
2016-Aug-04 21:33N 30°45' W 012°32'1212.5
2016-Aug-04 20:33N 30°54' W 012°21'1312.4
2016-Aug-04 19:33N 31°02' W 012°10'1412.7
2016-Aug-04 18:28N 31°11' W 011°59'1212.4
2016-Aug-04 17:31N 31°20' W 011°49'3812.3
2016-Aug-04 14:26N 31°46' W 011°17'1112.2
2016-Aug-04 13:31N 31°53' W 011°07'1212.2
2016-Aug-04 12:33N 32°01' W 010°57'1412.3
2016-Aug-04 11:25N 32°11' W 010°45'2211.9
2016-Aug-04 09:32N 32°26' W 010°26'6412.0
2016-Aug-04 04:10N 33°10' W 009°30'811.9
2016-Aug-04 03:31N 33°16' W 009°24'1212.1
2016-Aug-04 02:30N 33°24' W 009°13'1212.5
2016-Aug-04 01:33N 33°32' W 009°03'1312.5
2016-Aug-04 00:33N 33°41' W 008°52'21411.9
2016-Aug-03 06:33N 35°59' W 005°33'  
2016-Jul-31 18:33N 37°41' E 009°10'1111.4
2016-Jul-31 17:33N 37°41' E 009°24'1511.9
2016-Jul-31 16:19N 37°40' E 009°43'2112.0
2016-Jul-31 14:33N 37°39' E 010°09'1312.2
2016-Jul-31 13:31N 37°37' E 010°25'1212.0
2016-Jul-31 12:33N 37°34' E 010°39'1212.3
2016-Jul-31 11:33N 37°31' E 010°54'1312.6
2016-Jul-31 10:32N 37°28' E 011°10'1212.0
2016-Jul-31 09:31N 37°22' E 011°23'1211.8
2016-Jul-31 08:33N 37°17' E 011°36'2411.9
2016-Jul-31 06:33N 37°08' E 012°03'1212.1
2016-Jul-31 05:33N 37°02' E 012°17'1211.9
2016-Jul-31 04:33N 36°58' E 012°31'1212.3
2016-Jul-31 03:32N 36°53' E 012°45'1211.9
2016-Jul-31 02:33N 36°48' E 012°58'1211.6
2016-Jul-31 01:33N 36°43' E 013°11'1211.6
2016-Jul-31 00:33N 36°38' E 013°25'2411.8
2016-Jul-30 22:33N 36°28' E 013°51'1111.5
2016-Jul-30 21:33N 36°23' E 014°04'1211.8
2016-Jul-30 20:33N 36°18' E 014°18'1211.8
2016-Jul-30 19:33N 36°12' E 014°30'1211.7
2016-Jul-30 18:33N 36°06' E 014°42'1211.7
2016-Jul-30 17:33N 35°59' E 014°54'1010.0
2016-Jul-30 16:33N 35°50' E 014°52'0 0.2
2016-Jul-30 15:33N 35°50' E 014°51'0 0.0
2016-Jul-30 14:33N 35°50' E 014°51'0 0.0
2016-Jul-30 13:33N 35°50' E 014°51'0 0.0
2016-Jul-30 12:33N 35°50' E 014°51'0 0.3
2016-Jul-30 11:33N 35°49' E 014°52'10 9.9
2016-Jul-30 10:33N 35°40' E 014°48'1211.5
2016-Jul-30 09:33N 35°33' E 014°37'1211.9
2016-Jul-30 08:33N 35°26' E 014°25'1211.9
2016-Jul-30 07:33N 35°18' E 014°14'1211.9
2016-Jul-30 06:33N 35°11' E 014°03'1212.1
2016-Jul-30 05:33N 35°03' E 013°52'1212.2
2016-Jul-30 04:33N 34°56' E 013°40'1212.2
2016-Jul-30 03:33N 34°48' E 013°28'  

Dump ship's entire track history